createdAt,value
2023-03-29T00:01:43.767Z,81.84
2023-03-29T00:04:10.784Z,82.62
2023-03-29T00:06:37.698Z,81.23
2023-03-29T00:09:04.844Z,81.37
2023-03-29T00:11:31.716Z,80.70
2023-03-29T00:13:58.563Z,80.99
2023-03-29T00:16:25.569Z,80.67
2023-03-29T00:18:52.450Z,80.45
2023-03-29T00:21:19.337Z,80.09
2023-03-29T00:23:46.375Z,80.43
2023-03-29T00:26:13.230Z,80.44
2023-03-29T00:28:40.265Z,80.63
2023-03-29T00:31:13.507Z,80.17
2023-03-29T00:33:41.314Z,79.61
2023-03-29T00:36:10.924Z,80.30
2023-03-29T00:38:38.706Z,80.38
2023-03-29T00:41:06.686Z,80.76
2023-03-29T00:43:53.504Z,80.32
2023-03-29T00:46:20.455Z,80.83
2023-03-29T00:48:47.657Z,81.73
2023-03-29T00:51:17.064Z,81.42
2023-03-29T00:53:49.624Z,80.11
2023-03-29T00:56:22.090Z,79.72
2023-03-29T00:59:11.531Z,79.02
2023-03-29T01:01:50.851Z,80.41
2023-03-29T01:04:25.352Z,79.15
2023-03-29T01:07:06.072Z,79.68
2023-03-29T01:09:36.833Z,79.78
2023-03-29T01:12:11.882Z,79.92
2023-03-29T01:15:01.986Z,79.95
2023-03-29T01:17:29.181Z,79.86
2023-03-29T01:20:01.650Z,79.82
2023-03-29T01:22:36.766Z,78.55
2023-03-29T01:25:24.936Z,79.19
2023-03-29T01:28:27.161Z,78.92
2023-03-29T01:31:03.963Z,78.71
2023-03-29T01:33:45.854Z,79.89
2023-03-29T01:36:31.999Z,79.34
2023-03-29T01:39:03.556Z,81.35
2023-03-29T01:41:48.350Z,81.48
2023-03-29T01:44:44.494Z,79.96
2023-03-29T01:47:37.593Z,78.97
2023-03-29T01:50:12.130Z,79.19
2023-03-29T01:52:47.098Z,79.30
2023-03-29T01:55:20.753Z,79.37
2023-03-29T01:57:48.996Z,78.38
2023-03-29T02:00:18.780Z,79.65
2023-03-29T02:02:47.709Z,79.39
2023-03-29T02:05:16.666Z,79.83
2023-03-29T02:07:46.315Z,79.66
2023-03-29T02:10:14.760Z,79.86
2023-03-29T02:12:42.029Z,80.44
2023-03-29T02:15:15.395Z,80.01
2023-03-29T02:17:44.615Z,81.43
2023-03-29T02:20:39.461Z,81.99
2023-03-29T02:23:26.977Z,81.90
2023-03-29T02:25:55.230Z,82.23
2023-03-29T02:28:25.535Z,82.98
2023-03-29T02:30:56.312Z,83.45
2023-03-29T02:33:41.544Z,82.61
2023-03-29T02:36:14.016Z,79.81
2023-03-29T02:38:41.525Z,80.39
2023-03-29T02:41:10.719Z,76.49
2023-03-29T02:43:39.702Z,76.80
2023-03-29T02:46:08.104Z,77.31
2023-03-29T02:48:37.250Z,77.41
2023-03-29T02:51:16.327Z,76.81
2023-03-29T02:54:08.039Z,77.27
2023-03-29T02:56:58.750Z,76.73
2023-03-29T02:59:26.115Z,77.94
2023-03-29T03:01:53.140Z,78.00
2023-03-29T03:04:20.169Z,78.65
2023-03-29T03:06:47.946Z,78.40
2023-03-29T03:09:15.338Z,77.97
2023-03-29T03:11:42.384Z,78.13
2023-03-29T03:14:09.530Z,78.93
2023-03-29T03:16:36.587Z,79.28
2023-03-29T03:19:04.339Z,80.19
2023-03-29T03:21:31.330Z,81.30
2023-03-29T03:23:58.198Z,81.00
2023-03-29T03:26:25.068Z,80.22
2023-03-29T03:28:51.987Z,80.51
2023-03-29T03:31:18.812Z,77.96
2023-03-29T03:33:46.270Z,77.67
2023-03-29T03:36:13.215Z,77.94
2023-03-29T03:38:40.158Z,77.16
2023-03-29T03:41:07.334Z,77.51
2023-03-29T03:43:34.663Z,76.39
2023-03-29T03:46:02.012Z,76.25
2023-03-29T03:48:29.086Z,75.88
2023-03-29T03:50:58.401Z,75.41
2023-03-29T03:53:27.188Z,76.22
2023-03-29T03:55:55.466Z,76.16
2023-03-29T03:58:23.092Z,76.16
2023-03-29T04:00:50.796Z,76.97
2023-03-29T04:03:18.813Z,76.94
2023-03-29T04:05:46.945Z,77.21
2023-03-29T04:08:14.864Z,79.07
2023-03-29T04:10:41.955Z,79.22
2023-03-29T04:13:08.871Z,81.86
2023-03-29T04:15:38.486Z,82.15
2023-03-29T04:18:06.295Z,80.57
2023-03-29T04:20:33.285Z,80.72
2023-03-29T04:23:00.372Z,80.86
2023-03-29T04:25:27.425Z,81.19
2023-03-29T04:27:54.324Z,81.22
2023-03-29T04:30:21.243Z,83.13
2023-03-29T04:32:48.815Z,84.39
2023-03-29T04:35:15.774Z,85.75
2023-03-29T04:37:42.609Z,86.57
2023-03-29T04:40:11.040Z,88.50
2023-03-29T04:42:37.858Z,89.99
2023-03-29T04:45:05.719Z,90.36
2023-03-29T04:47:32.762Z,90.99
2023-03-29T04:49:59.701Z,91.41
2023-03-29T04:52:26.553Z,92.29
2023-03-29T04:54:53.661Z,92.95
2023-03-29T04:57:20.707Z,93.62
2023-03-29T04:59:47.584Z,94.25
2023-03-29T05:02:14.628Z,95.09
2023-03-29T05:04:41.604Z,94.37
2023-03-29T05:07:08.536Z,94.08
2023-03-29T05:09:35.620Z,94.73
2023-03-29T05:12:02.641Z,94.47
2023-03-29T05:14:29.507Z,94.36
2023-03-29T05:16:56.513Z,94.41
2023-03-29T05:19:23.944Z,94.27
2023-03-29T05:21:51.167Z,94.06
2023-03-29T05:24:18.172Z,93.92
2023-03-29T05:26:45.048Z,92.89
2023-03-29T05:29:11.954Z,93.01
2023-03-29T05:31:39.151Z,92.89
2023-03-29T05:34:06.868Z,92.34
2023-03-29T05:36:33.815Z,92.75
2023-03-29T05:39:00.835Z,93.16
2023-03-29T05:41:27.736Z,92.99
2023-03-29T05:43:54.593Z,92.16
2023-03-29T05:46:21.578Z,92.78
2023-03-29T05:48:48.477Z,92.34
2023-03-29T05:51:15.368Z,92.73
2023-03-29T05:53:42.361Z,92.13
2023-03-29T05:56:09.379Z,92.47
2023-03-29T05:58:36.213Z,92.54
2023-03-29T06:01:03.334Z,93.27
2023-03-29T06:03:30.675Z,93.23
2023-03-29T06:06:03.169Z,93.13
2023-03-29T06:08:30.702Z,93.32
2023-03-29T06:11:04.529Z,92.84
2023-03-29T06:13:33.305Z,92.01
2023-03-29T06:16:00.971Z,92.15
2023-03-29T06:18:27.864Z,91.48
2023-03-29T06:20:54.805Z,91.26
2023-03-29T06:23:22.681Z,90.96
2023-03-29T06:25:49.927Z,90.54
2023-03-29T06:28:17.323Z,89.73
2023-03-29T06:30:44.953Z,89.52
2023-03-29T06:33:12.942Z,89.30
2023-03-29T06:35:42.729Z,89.55
2023-03-29T06:38:09.918Z,89.10
2023-03-29T06:40:36.836Z,88.85
2023-03-29T06:43:04.729Z,88.24
2023-03-29T06:48:03.872Z,87.85
2023-03-29T06:50:31.484Z,88.45
2023-03-29T06:52:58.320Z,88.36
2023-03-29T06:55:25.793Z,87.98
2023-03-29T06:57:54.337Z,88.32
2023-03-29T07:00:22.134Z,88.23
2023-03-29T07:02:48.955Z,88.71
2023-03-29T07:05:16.243Z,89.18
2023-03-29T07:07:45.324Z,87.95
2023-03-29T07:10:12.423Z,87.56
2023-03-29T07:12:39.442Z,86.84
2023-03-29T07:15:06.667Z,86.41
2023-03-29T07:17:33.554Z,84.09
2023-03-29T07:20:00.588Z,85.21
2023-03-29T07:22:27.496Z,84.74
2023-03-29T07:24:54.298Z,85.28
2023-03-29T07:27:21.270Z,85.02
2023-03-29T07:29:48.144Z,85.42
2023-03-29T07:32:14.966Z,85.93
2023-03-29T07:34:42.871Z,85.37
2023-03-29T07:37:09.829Z,85.41
2023-03-29T07:39:36.656Z,84.56
2023-03-29T07:42:03.597Z,84.73
2023-03-29T07:44:30.484Z,85.88
2023-03-29T07:46:57.345Z,84.80
2023-03-29T07:49:24.444Z,83.57
2023-03-29T07:51:51.281Z,83.17
2023-03-29T07:54:18.209Z,83.03
2023-03-29T07:56:45.205Z,83.49
2023-03-29T07:59:12.127Z,82.97
2023-03-29T08:01:39.037Z,82.36
2023-03-29T08:04:06.201Z,82.53
2023-03-29T08:06:33.422Z,82.12
2023-03-29T08:09:00.327Z,81.92
2023-03-29T08:11:27.381Z,80.98
2023-03-29T08:13:54.310Z,81.14
2023-03-29T08:16:21.199Z,79.50
2023-03-29T08:18:48.177Z,80.37
2023-03-29T08:21:15.068Z,81.91
2023-03-29T08:23:41.995Z,81.34
2023-03-29T08:26:08.929Z,80.36
2023-03-29T08:28:35.886Z,81.07
2023-03-29T08:31:03.095Z,82.74
2023-03-29T08:33:30.249Z,81.04
2023-03-29T08:35:57.209Z,81.02
2023-03-29T08:38:24.187Z,78.00
2023-03-29T08:40:51.229Z,77.61
2023-03-29T08:43:23.930Z,77.82
2023-03-29T08:45:59.270Z,76.38
2023-03-29T08:48:46.064Z,74.56
2023-03-29T08:51:21.108Z,78.41
2023-03-29T08:53:57.054Z,79.85
2023-03-29T08:56:27.499Z,80.03
2023-03-29T08:58:56.881Z,78.83
2023-03-29T09:01:28.355Z,81.83
2023-03-29T09:04:14.172Z,83.43
2023-03-29T09:06:41.201Z,83.83
2023-03-29T09:09:17.534Z,83.54
2023-03-29T09:12:15.711Z,84.36
2023-03-29T09:14:57.021Z,85.66
2023-03-29T09:17:52.967Z,84.89
2023-03-29T09:20:52.881Z,85.18
2023-03-29T09:24:10.603Z,84.35
2023-03-29T09:26:41.897Z,76.04
2023-03-29T09:29:27.404Z,74.72
2023-03-29T09:31:56.061Z,74.49
2023-03-29T09:34:39.517Z,71.90
2023-03-29T09:37:16.364Z,71.76
2023-03-29T09:39:43.251Z,71.92
2023-03-29T09:42:14.000Z,75.00
2023-03-29T09:44:47.267Z,73.37
2023-03-29T09:47:55.229Z,72.95
2023-03-29T09:50:31.899Z,74.18
2023-03-29T09:52:59.504Z,73.80
2023-03-29T09:55:29.551Z,76.20
2023-03-29T09:58:05.334Z,76.05
2023-03-29T10:00:32.260Z,76.98
2023-03-29T10:02:59.282Z,73.92
2023-03-29T10:05:28.349Z,72.42
2023-03-29T10:08:00.337Z,72.31
2023-03-29T10:10:33.740Z,70.09
2023-03-29T10:13:07.240Z,71.44
2023-03-29T10:15:34.163Z,69.42
2023-03-29T10:18:11.942Z,68.51
2023-03-29T10:20:40.574Z,67.87
2023-03-29T10:23:09.369Z,67.65
2023-03-29T10:25:42.093Z,67.67
2023-03-29T10:28:18.711Z,68.19
2023-03-29T10:30:52.919Z,65.53
2023-03-29T10:33:22.450Z,65.92
2023-03-29T10:35:49.825Z,64.84
2023-03-29T10:38:19.921Z,64.05
2023-03-29T10:40:51.668Z,66.51
2023-03-29T10:43:28.873Z,68.54
2023-03-29T10:46:05.514Z,68.73
2023-03-29T10:48:35.219Z,68.75
2023-03-29T10:51:04.838Z,67.84
2023-03-29T10:53:35.191Z,68.72
2023-03-29T10:56:19.988Z,67.10
2023-03-29T10:59:01.013Z,68.52
2023-03-29T11:01:52.112Z,66.56
2023-03-29T11:04:42.906Z,67.58
2023-03-29T11:07:40.510Z,65.13
2023-03-29T11:10:26.129Z,66.22
2023-03-29T11:13:12.645Z,68.08
2023-03-29T11:16:10.718Z,67.37
2023-03-29T11:19:01.781Z,65.68
2023-03-29T11:21:54.423Z,67.89
2023-03-29T11:24:39.564Z,65.52
2023-03-29T11:27:31.462Z,64.34
2023-03-29T11:30:29.733Z,65.41
2023-03-29T11:33:14.562Z,66.44
2023-03-29T11:35:45.870Z,64.75
2023-03-29T11:38:38.451Z,64.60
2023-03-29T11:41:32.299Z,62.41
2023-03-29T11:44:06.030Z,63.04
2023-03-29T11:46:39.641Z,65.36
2023-03-29T11:49:17.141Z,64.38
2023-03-29T11:52:06.762Z,63.86
2023-03-29T11:54:42.195Z,62.20
2023-03-29T11:57:32.175Z,62.12
2023-03-29T12:00:12.474Z,63.14
2023-03-29T12:03:01.452Z,60.74
2023-03-29T12:05:46.077Z,63.58
2023-03-29T12:08:15.517Z,61.61
2023-03-29T12:10:46.417Z,59.39
2023-03-29T12:13:30.767Z,59.78
2023-03-29T12:16:03.985Z,60.85
2023-03-29T12:18:38.629Z,60.25
2023-03-29T12:21:12.042Z,59.26
2023-03-29T12:23:41.460Z,58.94
2023-03-29T12:26:26.836Z,58.44
2023-03-29T12:29:20.730Z,59.98
2023-03-29T12:32:00.848Z,57.77
2023-03-29T12:34:46.258Z,59.92
2023-03-29T12:37:44.003Z,59.49
2023-03-29T12:40:16.854Z,59.33
2023-03-29T12:42:58.811Z,61.22
2023-03-29T12:45:38.538Z,59.52
2023-03-29T12:48:07.067Z,59.40
2023-03-29T12:50:44.600Z,59.82
2023-03-29T12:53:21.193Z,60.79
2023-03-29T12:56:10.137Z,60.50
2023-03-29T12:58:40.075Z,60.08
2023-03-29T13:01:25.410Z,60.62
2023-03-29T13:04:01.891Z,59.92
2023-03-29T13:06:32.461Z,59.07
2023-03-29T13:09:21.251Z,58.24
2023-03-29T13:12:04.224Z,60.30
2023-03-29T13:14:35.660Z,58.62
2023-03-29T13:17:22.016Z,57.77
2023-03-29T13:20:12.066Z,59.54
2023-03-29T13:22:53.975Z,59.12
2023-03-29T13:25:31.916Z,58.09
2023-03-29T13:28:21.645Z,60.26
2023-03-29T13:31:06.534Z,60.92
2023-03-29T13:34:00.466Z,61.57
2023-03-29T13:36:49.239Z,60.58
2023-03-29T13:39:23.654Z,59.18
2023-03-29T13:41:53.933Z,57.49
2023-03-29T13:44:34.106Z,56.83
2023-03-29T13:47:04.363Z,56.58
2023-03-29T13:49:33.896Z,58.77
2023-03-29T13:52:19.188Z,57.54
2023-03-29T13:54:45.955Z,58.41
2023-03-29T13:57:41.300Z,59.74
2023-03-29T14:00:23.757Z,58.14
2023-03-29T14:03:00.570Z,57.58
2023-03-29T14:05:39.733Z,57.18
2023-03-29T14:08:17.183Z,58.01
2023-03-29T14:10:45.505Z,59.68
2023-03-29T14:13:18.563Z,60.20
2023-03-29T14:15:53.610Z,57.18
2023-03-29T14:18:25.669Z,57.03
2023-03-29T14:20:55.392Z,57.16
2023-03-29T14:23:28.478Z,57.30
2023-03-29T14:25:55.461Z,58.32
2023-03-29T14:28:27.879Z,58.98
2023-03-29T14:30:56.539Z,60.20
2023-03-29T14:33:31.773Z,59.98
2023-03-29T14:36:01.284Z,60.78
2023-03-29T14:38:29.566Z,61.17
2023-03-29T14:41:01.129Z,61.50
2023-03-29T14:43:29.698Z,60.03
2023-03-29T14:45:58.029Z,61.19
2023-03-29T14:48:25.853Z,61.54
2023-03-29T14:50:53.095Z,59.29
2023-03-29T14:53:22.971Z,61.38
2023-03-29T14:55:52.331Z,61.52
2023-03-29T14:58:24.400Z,60.47
2023-03-29T15:00:52.620Z,59.67
2023-03-29T15:03:21.427Z,59.10
2023-03-29T15:05:55.183Z,58.12
2023-03-29T15:08:34.707Z,57.56
2023-03-29T15:11:02.906Z,57.50
2023-03-29T15:13:30.916Z,57.96
2023-03-29T15:16:00.741Z,58.33
2023-03-29T15:18:33.521Z,59.13
2023-03-29T15:21:01.237Z,59.89
2023-03-29T15:23:39.219Z,59.50
2023-03-29T15:26:28.750Z,59.44
2023-03-29T15:29:13.228Z,59.18
2023-03-29T15:31:41.926Z,59.22
2023-03-29T15:34:14.050Z,58.99
2023-03-29T15:36:43.170Z,59.44
2023-03-29T15:39:15.736Z,59.95
2023-03-29T15:41:43.908Z,60.03
2023-03-29T15:44:11.617Z,59.38
2023-03-29T15:46:38.621Z,60.44
2023-03-29T15:49:05.527Z,60.61
2023-03-29T15:51:32.453Z,61.49
2023-03-29T15:53:59.385Z,60.80
2023-03-29T15:56:26.540Z,61.37
2023-03-29T15:58:53.394Z,62.65
2023-03-29T16:01:34.906Z,62.95
2023-03-29T16:04:06.493Z,64.87
2023-03-29T16:06:34.582Z,65.43
2023-03-29T16:09:01.654Z,66.46
2023-03-29T16:11:28.734Z,66.30
2023-03-29T16:13:56.641Z,65.31
2023-03-29T16:16:23.730Z,65.21
2023-03-29T16:18:50.757Z,65.16
2023-03-29T16:21:19.881Z,65.52
2023-03-29T16:23:47.385Z,65.78
2023-03-29T16:26:16.220Z,65.97
2023-03-29T16:28:43.554Z,64.93
2023-03-29T16:31:14.031Z,65.25
2023-03-29T16:33:41.627Z,63.93
2023-03-29T16:36:16.272Z,64.21
2023-03-29T16:38:43.137Z,64.15
2023-03-29T16:41:19.290Z,63.61
2023-03-29T16:43:46.226Z,63.57
2023-03-29T16:46:13.345Z,63.77
2023-03-29T16:48:40.345Z,62.81
2023-03-29T16:51:07.807Z,63.22
2023-03-29T16:53:34.837Z,64.26
2023-03-29T16:56:02.655Z,63.26
2023-03-29T16:58:29.851Z,63.52
2023-03-29T17:00:57.345Z,63.34
2023-03-29T17:03:24.475Z,63.54
2023-03-29T17:05:52.966Z,63.63
2023-03-29T17:08:21.285Z,63.72
2023-03-29T17:10:54.592Z,63.85
2023-03-29T17:13:23.112Z,64.05
2023-03-29T17:15:51.399Z,64.67
2023-03-29T17:18:21.393Z,64.02
2023-03-29T17:20:50.613Z,64.22
2023-03-29T17:23:17.898Z,63.92
2023-03-29T17:25:44.911Z,64.06
2023-03-29T17:28:11.889Z,62.88
2023-03-29T17:30:39.893Z,63.53
2023-03-29T17:33:06.898Z,63.39
2023-03-29T17:35:36.985Z,64.15
2023-03-29T17:38:03.982Z,63.52
2023-03-29T17:40:30.950Z,63.21
2023-03-29T17:42:57.922Z,62.90
2023-03-29T17:45:24.737Z,62.71
2023-03-29T17:47:51.706Z,62.15
2023-03-29T17:50:20.442Z,62.35
2023-03-29T17:52:47.436Z,62.43
2023-03-29T17:55:14.766Z,63.36
2023-03-29T17:57:42.464Z,63.01
2023-03-29T18:00:12.397Z,63.71
2023-03-29T18:02:40.565Z,63.34
2023-03-29T18:05:08.332Z,62.76
2023-03-29T18:07:35.823Z,62.31
2023-03-29T18:10:02.837Z,63.72
2023-03-29T18:12:29.893Z,63.48
2023-03-29T18:14:56.863Z,63.36
2023-03-29T18:17:25.400Z,64.78
2023-03-29T18:19:52.565Z,64.77
2023-03-29T18:22:19.750Z,64.96
2023-03-29T18:24:47.679Z,65.00
2023-03-29T18:27:14.595Z,64.43
2023-03-29T18:29:41.641Z,64.43
2023-03-29T18:32:08.652Z,64.64
2023-03-29T18:34:38.750Z,65.00
2023-03-29T18:37:05.903Z,65.12
2023-03-29T18:39:33.118Z,64.07
2023-03-29T18:42:00.086Z,63.78
2023-03-29T18:44:27.307Z,64.34
2023-03-29T18:46:54.394Z,64.66
2023-03-29T18:49:21.479Z,64.96
2023-03-29T18:51:48.595Z,64.31
2023-03-29T18:54:15.744Z,63.95
2023-03-29T18:56:42.806Z,64.66
2023-03-29T18:59:10.285Z,64.22
2023-03-29T19:01:40.229Z,64.77
2023-03-29T19:04:07.220Z,64.63
2023-03-29T19:06:34.273Z,63.72
2023-03-29T19:09:01.902Z,64.39
2023-03-29T19:11:29.269Z,65.30
2023-03-29T19:13:56.497Z,65.62
2023-03-29T19:16:23.609Z,65.41
2023-03-29T19:18:50.874Z,65.72
2023-03-29T19:21:18.066Z,66.13
2023-03-29T19:23:45.101Z,66.34
2023-03-29T19:26:12.154Z,65.96
2023-03-29T19:28:42.054Z,66.00
2023-03-29T19:31:09.108Z,66.70
2023-03-29T19:33:36.154Z,66.40
2023-03-29T19:36:03.412Z,66.72
2023-03-29T19:38:30.804Z,67.02
2023-03-29T19:40:57.870Z,66.84
2023-03-29T19:43:24.883Z,66.90
2023-03-29T19:45:54.965Z,67.44
2023-03-29T19:48:23.935Z,67.79
2023-03-29T19:50:52.035Z,68.06
2023-03-29T19:53:19.170Z,68.07
2023-03-29T19:55:46.473Z,67.71
2023-03-29T19:58:13.701Z,67.57
2023-03-29T20:00:40.885Z,68.10
2023-03-29T20:03:08.082Z,68.39
2023-03-29T20:05:35.854Z,69.00
2023-03-29T20:08:03.083Z,68.77
2023-03-29T20:10:30.306Z,68.43
2023-03-29T20:12:57.335Z,68.38
2023-03-29T20:15:24.665Z,68.14
2023-03-29T20:17:53.022Z,68.29
2023-03-29T20:20:21.324Z,68.81
2023-03-29T20:22:48.507Z,68.98
2023-03-29T20:25:15.809Z,68.52
2023-03-29T20:27:43.067Z,68.15
2023-03-29T20:30:11.605Z,67.99
2023-03-29T20:32:38.605Z,68.67
2023-03-29T20:35:06.175Z,68.32
2023-03-29T20:37:34.657Z,68.23
2023-03-29T20:40:01.810Z,67.92
2023-03-29T20:42:28.990Z,67.67
2023-03-29T20:44:56.598Z,68.49
2023-03-29T20:47:23.920Z,68.21
2023-03-29T20:49:50.904Z,68.03
2023-03-29T20:52:18.178Z,68.28
2023-03-29T20:54:46.119Z,67.86
2023-03-29T20:57:15.644Z,67.99
2023-03-29T20:59:44.128Z,67.66
2023-03-29T21:02:15.012Z,67.61
2023-03-29T21:04:43.712Z,68.21
2023-03-29T21:07:10.908Z,67.92
2023-03-29T21:09:38.013Z,67.76
2023-03-29T21:12:05.252Z,68.06
2023-03-29T21:14:32.459Z,67.79
2023-03-29T21:16:59.482Z,67.22
2023-03-29T21:19:26.742Z,67.20
2023-03-29T21:21:53.721Z,67.53
2023-03-29T21:24:21.653Z,68.78
2023-03-29T21:26:48.925Z,71.61
2023-03-29T21:29:16.082Z,72.16
2023-03-29T21:31:43.072Z,73.23
2023-03-29T21:34:10.069Z,72.44
2023-03-29T21:36:37.062Z,71.63
2023-03-29T21:39:04.229Z,71.00
2023-03-29T21:41:31.197Z,70.46
2023-03-29T21:43:58.200Z,69.71
2023-03-29T21:46:25.255Z,69.59
2023-03-29T21:48:52.581Z,69.64
2023-03-29T21:51:19.592Z,69.07
2023-03-29T21:53:46.539Z,69.09
2023-03-29T21:56:13.635Z,68.69
2023-03-29T21:58:40.658Z,68.95
2023-03-29T22:01:08.084Z,68.59
2023-03-29T22:03:35.147Z,68.50
2023-03-29T22:06:05.054Z,67.86
2023-03-29T22:08:32.129Z,67.98
2023-03-29T22:11:09.350Z,67.74
2023-03-29T22:13:36.858Z,68.15
2023-03-29T22:16:04.774Z,67.31
2023-03-29T22:18:37.273Z,67.53
2023-03-29T22:21:04.388Z,67.37
2023-03-29T22:23:31.544Z,66.43
2023-03-29T22:25:58.672Z,67.02
2023-03-29T22:28:25.596Z,66.98
2023-03-29T22:30:52.548Z,66.76
2023-03-29T22:33:19.643Z,66.57
2023-03-29T22:35:46.608Z,66.29
2023-03-29T22:38:13.736Z,66.24
2023-03-29T22:40:41.083Z,65.02
2023-03-29T22:43:08.032Z,65.02
2023-03-29T22:45:34.953Z,64.28
2023-03-29T22:48:02.152Z,64.88
2023-03-29T22:50:29.156Z,64.28
2023-03-29T22:52:56.087Z,64.18
2023-03-29T22:55:23.166Z,64.13
2023-03-29T22:57:50.065Z,64.28
2023-03-29T23:00:17.344Z,64.00
2023-03-29T23:02:44.495Z,63.65
2023-03-29T23:05:12.314Z,64.28
2023-03-29T23:07:39.209Z,64.31
2023-03-29T23:10:07.295Z,64.92
2023-03-29T23:12:34.647Z,64.40
2023-03-29T23:15:02.013Z,64.47
2023-03-29T23:17:29.512Z,64.28
2023-03-29T23:19:56.482Z,64.82
2023-03-29T23:22:23.491Z,64.88
2023-03-29T23:24:50.661Z,64.66
2023-03-29T23:27:17.826Z,65.27
2023-03-29T23:29:44.768Z,65.75
2023-03-29T23:32:12.567Z,65.60
2023-03-29T23:34:39.471Z,65.82
2023-03-29T23:37:06.415Z,65.92
2023-03-29T23:39:33.370Z,66.06
2023-03-29T23:42:00.343Z,66.28
2023-03-29T23:44:27.382Z,66.30
2023-03-29T23:46:54.428Z,66.18
2023-03-29T23:49:21.362Z,66.63
2023-03-29T23:51:48.620Z,66.34
2023-03-29T23:54:15.835Z,66.15
2023-03-29T23:56:43.819Z,66.96
2023-03-29T23:59:10.813Z,67.10
